sensor_id;sensor_type;location;lat;lon;timestamp;P1;durP1;ratioP1;P2;durP2;ratioP2
57217;SDS011;43078;52.972;6.482;2023-04-08T00:01:29;12.40;;;7.07;;
57217;SDS011;43078;52.972;6.482;2023-04-08T00:03:57;11.07;;;7.15;;
57217;SDS011;43078;52.972;6.482;2023-04-08T00:06:23;12.57;;;6.47;;
57217;SDS011;43078;52.972;6.482;2023-04-08T00:12:23;12.88;;;7.10;;
57217;SDS011;43078;52.972;6.482;2023-04-08T00:15:17;12.68;;;7.10;;
57217;SDS011;43078;52.972;6.482;2023-04-08T00:18:13;13.32;;;6.97;;
57217;SDS011;43078;52.972;6.482;2023-04-08T00:20:56;13.60;;;6.78;;
57217;SDS011;43078;52.972;6.482;2023-04-08T00:23:47;12.25;;;7.03;;
57217;SDS011;43078;52.972;6.482;2023-04-08T00:29:48;10.23;;;6.53;;
57217;SDS011;43078;52.972;6.482;2023-04-08T00:32:59;13.60;;;7.30;;
57217;SDS011;43078;52.972;6.482;2023-04-08T00:35:53;14.15;;;6.68;;
57217;SDS011;43078;52.972;6.482;2023-04-08T00:38:53;16.00;;;7.15;;
57217;SDS011;43078;52.972;6.482;2023-04-08T00:41:49;13.68;;;7.22;;
57217;SDS011;43078;52.972;6.482;2023-04-08T00:44:37;10.25;;;6.28;;
57217;SDS011;43078;52.972;6.482;2023-04-08T00:47:03;13.95;;;6.85;;
57217;SDS011;43078;52.972;6.482;2023-04-08T00:49:51;12.30;;;7.00;;
57217;SDS011;43078;52.972;6.482;2023-04-08T00:52:45;11.23;;;6.90;;
57217;SDS011;43078;52.972;6.482;2023-04-08T00:55:13;11.82;;;7.32;;
57217;SDS011;43078;52.972;6.482;2023-04-08T00:58:08;14.20;;;7.35;;
57217;SDS011;43078;52.972;6.482;2023-04-08T01:00:35;11.23;;;6.88;;
57217;SDS011;43078;52.972;6.482;2023-04-08T01:06:38;12.32;;;7.53;;
57217;SDS011;43078;52.972;6.482;2023-04-08T01:09:37;12.20;;;7.50;;
57217;SDS011;43078;52.972;6.482;2023-04-08T01:12:48;13.35;;;7.38;;
57217;SDS011;43078;52.972;6.482;2023-04-08T01:15:56;12.75;;;7.25;;
57217;SDS011;43078;52.972;6.482;2023-04-08T01:25:23;13.45;;;7.82;;
57217;SDS011;43078;52.972;6.482;2023-04-08T01:28:20;11.52;;;7.32;;
57217;SDS011;43078;52.972;6.482;2023-04-08T01:31:10;12.93;;;7.38;;
57217;SDS011;43078;52.972;6.482;2023-04-08T01:34:05;13.15;;;7.80;;
57217;SDS011;43078;52.972;6.482;2023-04-08T01:36:55;13.80;;;8.27;;
57217;SDS011;43078;52.972;6.482;2023-04-08T01:43:04;12.40;;;7.88;;
57217;SDS011;43078;52.972;6.482;2023-04-08T01:45:51;12.85;;;7.90;;
57217;SDS011;43078;52.972;6.482;2023-04-08T01:48:43;14.13;;;8.52;;
57217;SDS011;43078;52.972;6.482;2023-04-08T01:51:36;10.05;;;7.35;;
57217;SDS011;43078;52.972;6.482;2023-04-08T01:57:43;12.52;;;8.85;;
57217;SDS011;43078;52.972;6.482;2023-04-08T02:00:58;14.77;;;8.98;;
57217;SDS011;43078;52.972;6.482;2023-04-08T02:03:46;15.45;;;9.50;;
57217;SDS011;43078;52.972;6.482;2023-04-08T02:10:29;12.25;;;9.23;;
57217;SDS011;43078;52.972;6.482;2023-04-08T02:13:29;11.90;;;8.60;;
57217;SDS011;43078;52.972;6.482;2023-04-08T02:19:17;15.20;;;9.05;;
57217;SDS011;43078;52.972;6.482;2023-04-08T02:25:13;14.45;;;9.45;;
57217;SDS011;43078;52.972;6.482;2023-04-08T02:28:02;12.23;;;9.90;;
57217;SDS011;43078;52.972;6.482;2023-04-08T02:30:36;15.02;;;9.65;;
57217;SDS011;43078;52.972;6.482;2023-04-08T02:33:45;13.10;;;9.10;;
57217;SDS011;43078;52.972;6.482;2023-04-08T02:39:12;15.65;;;10.68;;
57217;SDS011;43078;52.972;6.482;2023-04-08T02:48:12;15.70;;;10.27;;
57217;SDS011;43078;52.972;6.482;2023-04-08T02:54:18;14.80;;;9.98;;
57217;SDS011;43078;52.972;6.482;2023-04-08T02:56:46;15.77;;;10.55;;
57217;SDS011;43078;52.972;6.482;2023-04-08T03:05:13;14.20;;;11.07;;
57217;SDS011;43078;52.972;6.482;2023-04-08T03:08:03;12.85;;;10.25;;
57217;SDS011;43078;52.972;6.482;2023-04-08T03:10:32;18.35;;;10.55;;
57217;SDS011;43078;52.972;6.482;2023-04-08T03:13:36;14.00;;;9.80;;
57217;SDS011;43078;52.972;6.482;2023-04-08T03:20:09;15.52;;;10.57;;
57217;SDS011;43078;52.972;6.482;2023-04-08T03:22:35;14.13;;;10.85;;
57217;SDS011;43078;52.972;6.482;2023-04-08T03:28:24;16.30;;;11.00;;
57217;SDS011;43078;52.972;6.482;2023-04-08T03:31:18;15.93;;;11.48;;
57217;SDS011;43078;52.972;6.482;2023-04-08T03:34:35;16.48;;;11.40;;
57217;SDS011;43078;52.972;6.482;2023-04-08T03:37:26;14.65;;;10.57;;
57217;SDS011;43078;52.972;6.482;2023-04-08T03:42:36;17.55;;;11.38;;
57217;SDS011;43078;52.972;6.482;2023-04-08T03:48:23;15.88;;;11.35;;
57217;SDS011;43078;52.972;6.482;2023-04-08T03:54:05;18.30;;;11.95;;
57217;SDS011;43078;52.972;6.482;2023-04-08T03:57:05;18.95;;;12.55;;
57217;SDS011;43078;52.972;6.482;2023-04-08T03:59:36;15.35;;;11.82;;
57217;SDS011;43078;52.972;6.482;2023-04-08T04:02:04;16.60;;;12.60;;
57217;SDS011;43078;52.972;6.482;2023-04-08T04:04:53;16.73;;;12.27;;
57217;SDS011;43078;52.972;6.482;2023-04-08T04:10:41;18.02;;;13.27;;
57217;SDS011;43078;52.972;6.482;2023-04-08T04:13:53;18.60;;;13.38;;
57217;SDS011;43078;52.972;6.482;2023-04-08T04:16:48;18.40;;;12.88;;
57217;SDS011;43078;52.972;6.482;2023-04-08T04:19:20;20.75;;;13.90;;
57217;SDS011;43078;52.972;6.482;2023-04-08T04:22:10;19.77;;;13.70;;
57217;SDS011;43078;52.972;6.482;2023-04-08T04:25:12;16.05;;;11.82;;
57217;SDS011;43078;52.972;6.482;2023-04-08T04:28:00;17.95;;;13.07;;
57217;SDS011;43078;52.972;6.482;2023-04-08T04:31:03;20.33;;;14.32;;
57217;SDS011;43078;52.972;6.482;2023-04-08T04:34:12;18.25;;;12.70;;
57217;SDS011;43078;52.972;6.482;2023-04-08T04:46:43;20.55;;;13.90;;
57217;SDS011;43078;52.972;6.482;2023-04-08T04:49:33;17.73;;;12.75;;
57217;SDS011;43078;52.972;6.482;2023-04-08T04:52:17;20.20;;;13.40;;
57217;SDS011;43078;52.972;6.482;2023-04-08T04:55:06;17.55;;;13.07;;
57217;SDS011;43078;52.972;6.482;2023-04-08T04:57:34;21.35;;;13.70;;
57217;SDS011;43078;52.972;6.482;2023-04-08T05:00:26;19.05;;;13.48;;
57217;SDS011;43078;52.972;6.482;2023-04-08T05:03:28;18.30;;;13.13;;
57217;SDS011;43078;52.972;6.482;2023-04-08T05:09:16;20.50;;;13.60;;
57217;SDS011;43078;52.972;6.482;2023-04-08T05:15:22;19.15;;;13.27;;
57217;SDS011;43078;52.972;6.482;2023-04-08T05:18:12;18.90;;;14.45;;
57217;SDS011;43078;52.972;6.482;2023-04-08T07:38:53;25.67;;;17.60;;
57217;SDS011;43078;52.972;6.482;2023-04-08T07:58:14;24.63;;;19.05;;
57217;SDS011;43078;52.972;6.482;2023-04-08T08:12:58;23.13;;;18.15;;
57217;SDS011;43078;52.972;6.482;2023-04-08T10:32:35;17.08;;;14.60;;
57217;SDS011;43078;52.972;6.482;2023-04-08T10:39:15;16.80;;;14.10;;
57217;SDS011;43078;52.972;6.482;2023-04-08T10:46:21;17.63;;;14.90;;
57217;SDS011;43078;52.972;6.482;2023-04-08T10:49:38;17.77;;;15.73;;
57217;SDS011;43078;52.972;6.482;2023-04-08T10:56:52;18.02;;;15.15;;
57217;SDS011;43078;52.972;6.482;2023-04-08T11:06:14;20.27;;;13.85;;
57217;SDS011;43078;52.972;6.482;2023-04-08T11:09:03;16.08;;;13.85;;
57217;SDS011;43078;52.972;6.482;2023-04-08T11:11:52;16.70;;;14.05;;
57217;SDS011;43078;52.972;6.482;2023-04-08T11:14:20;20.15;;;13.75;;
57217;SDS011;43078;52.972;6.482;2023-04-08T11:16:49;16.15;;;13.77;;
57217;SDS011;43078;52.972;6.482;2023-04-08T11:19:37;16.60;;;14.13;;
57217;SDS011;43078;52.972;6.482;2023-04-08T11:24:59;15.68;;;13.20;;
57217;SDS011;43078;52.972;6.482;2023-04-08T11:27:46;14.98;;;12.52;;
57217;SDS011;43078;52.972;6.482;2023-04-08T11:30:45;15.60;;;12.93;;
57217;SDS011;43078;52.972;6.482;2023-04-08T11:33:14;15.38;;;12.77;;
57217;SDS011;43078;52.972;6.482;2023-04-08T11:35:42;14.63;;;11.95;;
57217;SDS011;43078;52.972;6.482;2023-04-08T11:38:33;16.00;;;12.77;;
57217;SDS011;43078;52.972;6.482;2023-04-08T11:41:39;16.27;;;12.70;;
57217;SDS011;43078;52.972;6.482;2023-04-08T11:44:19;14.20;;;11.80;;
57217;SDS011;43078;52.972;6.482;2023-04-08T11:47:14;14.32;;;11.18;;
57217;SDS011;43078;52.972;6.482;2023-04-08T11:49:43;14.18;;;11.02;;
57217;SDS011;43078;52.972;6.482;2023-04-08T11:55:12;12.73;;;9.98;;
57217;SDS011;43078;52.972;6.482;2023-04-08T11:57:47;13.68;;;10.82;;
57217;SDS011;43078;52.972;6.482;2023-04-08T12:00:13;14.52;;;10.63;;
57217;SDS011;43078;52.972;6.482;2023-04-08T12:02:39;14.27;;;11.40;;
57217;SDS011;43078;52.972;6.482;2023-04-08T12:05:05;13.20;;;10.50;;
57217;SDS011;43078;52.972;6.482;2023-04-08T12:07:31;12.85;;;10.80;;
57217;SDS011;43078;52.972;6.482;2023-04-08T12:09:57;14.27;;;10.27;;
57217;SDS011;43078;52.972;6.482;2023-04-08T12:12:25;13.73;;;9.95;;
57217;SDS011;43078;52.972;6.482;2023-04-08T12:14:51;13.82;;;10.75;;
57217;SDS011;43078;52.972;6.482;2023-04-08T12:17:17;13.73;;;10.30;;
57217;SDS011;43078;52.972;6.482;2023-04-08T12:19:43;14.77;;;10.43;;
57217;SDS011;43078;52.972;6.482;2023-04-08T12:22:35;14.85;;;10.52;;
57217;SDS011;43078;52.972;6.482;2023-04-08T12:25:01;15.48;;;11.00;;
57217;SDS011;43078;52.972;6.482;2023-04-08T12:27:28;13.98;;;10.75;;
57217;SDS011;43078;52.972;6.482;2023-04-08T12:29:54;14.45;;;10.75;;
57217;SDS011;43078;52.972;6.482;2023-04-08T12:32:22;15.38;;;11.20;;
57217;SDS011;43078;52.972;6.482;2023-04-08T12:34:49;14.32;;;10.57;;
57217;SDS011;43078;52.972;6.482;2023-04-08T12:37:15;15.32;;;10.60;;
57217;SDS011;43078;52.972;6.482;2023-04-08T12:39:44;16.15;;;11.90;;
57217;SDS011;43078;52.972;6.482;2023-04-08T12:42:11;15.75;;;11.88;;
57217;SDS011;43078;52.972;6.482;2023-04-08T12:44:37;15.98;;;11.95;;
57217;SDS011;43078;52.972;6.482;2023-04-08T12:47:03;16.52;;;12.13;;
57217;SDS011;43078;52.972;6.482;2023-04-08T12:49:31;18.60;;;12.85;;
57217;SDS011;43078;52.972;6.482;2023-04-08T12:51:56;14.73;;;11.85;;
57217;SDS011;43078;52.972;6.482;2023-04-08T12:54:22;17.90;;;12.98;;
57217;SDS011;43078;52.972;6.482;2023-04-08T12:56:48;18.67;;;13.90;;
57217;SDS011;43078;52.972;6.482;2023-04-08T12:59:14;16.10;;;11.95;;
57217;SDS011;43078;52.972;6.482;2023-04-08T13:01:42;21.98;;;16.35;;
57217;SDS011;43078;52.972;6.482;2023-04-08T13:04:08;17.63;;;12.52;;
57217;SDS011;43078;52.972;6.482;2023-04-08T13:06:49;17.10;;;13.45;;
57217;SDS011;43078;52.972;6.482;2023-04-08T13:09:15;19.33;;;13.15;;
57217;SDS011;43078;52.972;6.482;2023-04-08T13:12:13;19.65;;;14.32;;
57217;SDS011;43078;52.972;6.482;2023-04-08T13:14:40;16.63;;;13.10;;
57217;SDS011;43078;52.972;6.482;2023-04-08T13:17:05;19.02;;;13.88;;
57217;SDS011;43078;52.972;6.482;2023-04-08T13:19:31;19.77;;;14.77;;
57217;SDS011;43078;52.972;6.482;2023-04-08T13:21:57;21.73;;;15.50;;
57217;SDS011;43078;52.972;6.482;2023-04-08T13:24:23;24.40;;;16.23;;
57217;SDS011;43078;52.972;6.482;2023-04-08T13:26:49;19.92;;;14.48;;
57217;SDS011;43078;52.972;6.482;2023-04-08T13:29:15;24.95;;;16.70;;
57217;SDS011;43078;52.972;6.482;2023-04-08T13:31:41;20.90;;;15.30;;
57217;SDS011;43078;52.972;6.482;2023-04-08T13:34:06;24.30;;;15.00;;
57217;SDS011;43078;52.972;6.482;2023-04-08T13:36:32;25.88;;;16.55;;
57217;SDS011;43078;52.972;6.482;2023-04-08T13:38:58;20.85;;;15.70;;
57217;SDS011;43078;52.972;6.482;2023-04-08T13:41:23;21.80;;;15.93;;
57217;SDS011;43078;52.972;6.482;2023-04-08T13:43:52;21.50;;;15.18;;
57217;SDS011;43078;52.972;6.482;2023-04-08T13:46:17;22.52;;;15.65;;
57217;SDS011;43078;52.972;6.482;2023-04-08T13:48:43;21.13;;;14.95;;
57217;SDS011;43078;52.972;6.482;2023-04-08T13:51:10;22.83;;;15.00;;
57217;SDS011;43078;52.972;6.482;2023-04-08T13:53:35;22.13;;;15.88;;
57217;SDS011;43078;52.972;6.482;2023-04-08T13:56:01;23.88;;;16.73;;
57217;SDS011;43078;52.972;6.482;2023-04-08T13:58:27;23.23;;;16.95;;
57217;SDS011;43078;52.972;6.482;2023-04-08T14:00:53;21.80;;;16.33;;
57217;SDS011;43078;52.972;6.482;2023-04-08T14:03:19;24.35;;;17.48;;
57217;SDS011;43078;52.972;6.482;2023-04-08T14:05:44;24.17;;;16.85;;
57217;SDS011;43078;52.972;6.482;2023-04-08T14:08:10;23.35;;;16.63;;
57217;SDS011;43078;52.972;6.482;2023-04-08T14:10:37;24.20;;;16.40;;
57217;SDS011;43078;52.972;6.482;2023-04-08T14:13:03;20.63;;;15.65;;
57217;SDS011;43078;52.972;6.482;2023-04-08T14:15:29;24.20;;;17.42;;
57217;SDS011;43078;52.972;6.482;2023-04-08T14:17:55;22.70;;;17.80;;
57217;SDS011;43078;52.972;6.482;2023-04-08T14:20:21;28.35;;;20.67;;
57217;SDS011;43078;52.972;6.482;2023-04-08T14:22:46;28.60;;;19.45;;
57217;SDS011;43078;52.972;6.482;2023-04-08T14:25:12;23.17;;;17.08;;
57217;SDS011;43078;52.972;6.482;2023-04-08T14:27:38;29.23;;;19.98;;
57217;SDS011;43078;52.972;6.482;2023-04-08T14:30:04;24.20;;;17.85;;
57217;SDS011;43078;52.972;6.482;2023-04-08T14:32:30;28.02;;;18.67;;
57217;SDS011;43078;52.972;6.482;2023-04-08T14:34:56;24.45;;;17.70;;
57217;SDS011;43078;52.972;6.482;2023-04-08T14:37:22;27.40;;;18.33;;
57217;SDS011;43078;52.972;6.482;2023-04-08T14:39:48;28.27;;;19.45;;
57217;SDS011;43078;52.972;6.482;2023-04-08T14:42:14;22.88;;;17.23;;
57217;SDS011;43078;52.972;6.482;2023-04-08T14:44:40;22.08;;;16.33;;
57217;SDS011;43078;52.972;6.482;2023-04-08T14:47:06;26.30;;;17.83;;
57217;SDS011;43078;52.972;6.482;2023-04-08T14:49:32;24.75;;;17.98;;
57217;SDS011;43078;52.972;6.482;2023-04-08T14:51:58;31.45;;;20.98;;
57217;SDS011;43078;52.972;6.482;2023-04-08T14:54:24;26.10;;;17.42;;
57217;SDS011;43078;52.972;6.482;2023-04-08T14:56:50;23.80;;;17.45;;
57217;SDS011;43078;52.972;6.482;2023-04-08T14:59:15;23.40;;;16.85;;
57217;SDS011;43078;52.972;6.482;2023-04-08T15:01:41;24.50;;;18.05;;
57217;SDS011;43078;52.972;6.482;2023-04-08T15:04:26;27.73;;;18.88;;
57217;SDS011;43078;52.972;6.482;2023-04-08T15:06:51;24.08;;;18.50;;
57217;SDS011;43078;52.972;6.482;2023-04-08T15:09:17;24.60;;;17.13;;
57217;SDS011;43078;52.972;6.482;2023-04-08T15:11:43;24.50;;;18.13;;
57217;SDS011;43078;52.972;6.482;2023-04-08T15:14:52;23.35;;;17.30;;
57217;SDS011;43078;52.972;6.482;2023-04-08T15:17:18;26.70;;;18.70;;
57217;SDS011;43078;52.972;6.482;2023-04-08T15:19:44;26.67;;;18.58;;
57217;SDS011;43078;52.972;6.482;2023-04-08T15:22:10;25.88;;;18.02;;
57217;SDS011;43078;52.972;6.482;2023-04-08T15:24:36;22.48;;;17.13;;
57217;SDS011;43078;52.972;6.482;2023-04-08T15:29:32;25.58;;;18.23;;
57217;SDS011;43078;52.972;6.482;2023-04-08T15:31:59;27.30;;;18.75;;
57217;SDS011;43078;52.972;6.482;2023-04-08T15:34:24;25.20;;;17.98;;
57217;SDS011;43078;52.972;6.482;2023-04-08T15:36:51;22.85;;;18.13;;
57217;SDS011;43078;52.972;6.482;2023-04-08T15:39:16;24.48;;;19.33;;
57217;SDS011;43078;52.972;6.482;2023-04-08T15:41:42;26.73;;;21.63;;
57217;SDS011;43078;52.972;6.482;2023-04-08T15:44:08;22.80;;;18.48;;
57217;SDS011;43078;52.972;6.482;2023-04-08T15:46:34;26.98;;;19.80;;
57217;SDS011;43078;52.972;6.482;2023-04-08T15:49:00;25.48;;;20.33;;
57217;SDS011;43078;52.972;6.482;2023-04-08T15:51:25;25.92;;;19.80;;
57217;SDS011;43078;52.972;6.482;2023-04-08T15:53:51;24.95;;;19.85;;
57217;SDS011;43078;52.972;6.482;2023-04-08T15:56:17;26.52;;;19.58;;
57217;SDS011;43078;52.972;6.482;2023-04-08T15:58:43;27.08;;;20.90;;
57217;SDS011;43078;52.972;6.482;2023-04-08T16:01:09;25.95;;;20.38;;
57217;SDS011;43078;52.972;6.482;2023-04-08T16:03:36;29.08;;;21.05;;
57217;SDS011;43078;52.972;6.482;2023-04-08T16:06:02;27.75;;;21.10;;
57217;SDS011;43078;52.972;6.482;2023-04-08T16:08:29;25.52;;;20.52;;
57217;SDS011;43078;52.972;6.482;2023-04-08T16:10:58;25.77;;;20.35;;
57217;SDS011;43078;52.972;6.482;2023-04-08T16:13:28;26.77;;;22.30;;
57217;SDS011;43078;52.972;6.482;2023-04-08T16:15:54;26.73;;;20.55;;
57217;SDS011;43078;52.972;6.482;2023-04-08T16:18:20;26.73;;;20.73;;
57217;SDS011;43078;52.972;6.482;2023-04-08T16:20:46;29.17;;;21.70;;
57217;SDS011;43078;52.972;6.482;2023-04-08T16:23:14;27.45;;;22.13;;
57217;SDS011;43078;52.972;6.482;2023-04-08T16:25:42;27.55;;;22.63;;
57217;SDS011;43078;52.972;6.482;2023-04-08T16:28:08;30.10;;;23.52;;
57217;SDS011;43078;52.972;6.482;2023-04-08T16:30:34;31.00;;;23.60;;
57217;SDS011;43078;52.972;6.482;2023-04-08T16:33:02;30.00;;;23.95;;
57217;SDS011;43078;52.972;6.482;2023-04-08T16:35:28;28.75;;;23.17;;
57217;SDS011;43078;52.972;6.482;2023-04-08T16:37:54;32.00;;;24.17;;
57217;SDS011;43078;52.972;6.482;2023-04-08T16:40:20;34.45;;;27.48;;
57217;SDS011;43078;52.972;6.482;2023-04-08T16:42:46;31.33;;;26.23;;
57217;SDS011;43078;52.972;6.482;2023-04-08T16:45:15;32.33;;;25.75;;
57217;SDS011;43078;52.972;6.482;2023-04-08T16:48:08;29.92;;;24.20;;
57217;SDS011;43078;52.972;6.482;2023-04-08T16:50:37;37.42;;;29.20;;
57217;SDS011;43078;52.972;6.482;2023-04-08T16:53:03;32.40;;;26.35;;
57217;SDS011;43078;52.972;6.482;2023-04-08T16:55:33;29.80;;;24.67;;
57217;SDS011;43078;52.972;6.482;2023-04-08T16:58:00;34.97;;;27.15;;
57217;SDS011;43078;52.972;6.482;2023-04-08T17:00:29;34.40;;;27.73;;
57217;SDS011;43078;52.972;6.482;2023-04-08T17:03:12;32.50;;;27.50;;
57217;SDS011;43078;52.972;6.482;2023-04-08T17:05:37;34.70;;;29.08;;
57217;SDS011;43078;52.972;6.482;2023-04-08T17:08:06;33.85;;;28.23;;
57217;SDS011;43078;52.972;6.482;2023-04-08T17:10:32;36.42;;;28.48;;
57217;SDS011;43078;52.972;6.482;2023-04-08T17:12:57;40.95;;;32.38;;
57217;SDS011;43078;52.972;6.482;2023-04-08T17:15:25;39.08;;;30.15;;
57217;SDS011;43078;52.972;6.482;2023-04-08T17:17:52;36.08;;;28.75;;
57217;SDS011;43078;52.972;6.482;2023-04-08T17:20:17;35.47;;;29.70;;
57217;SDS011;43078;52.972;6.482;2023-04-08T17:22:43;39.15;;;30.80;;
57217;SDS011;43078;52.972;6.482;2023-04-08T17:25:09;36.85;;;31.52;;
57217;SDS011;43078;52.972;6.482;2023-04-08T17:27:35;40.13;;;32.00;;
57217;SDS011;43078;52.972;6.482;2023-04-08T17:30:01;39.97;;;33.38;;
57217;SDS011;43078;52.972;6.482;2023-04-08T17:32:27;41.42;;;32.42;;
57217;SDS011;43078;52.972;6.482;2023-04-08T17:34:53;41.70;;;32.70;;
57217;SDS011;43078;52.972;6.482;2023-04-08T17:37:18;40.38;;;34.13;;
57217;SDS011;43078;52.972;6.482;2023-04-08T17:39:49;39.10;;;32.95;;
57217;SDS011;43078;52.972;6.482;2023-04-08T17:42:15;38.63;;;33.47;;
57217;SDS011;43078;52.972;6.482;2023-04-08T17:44:43;45.63;;;37.47;;
57217;SDS011;43078;52.972;6.482;2023-04-08T17:47:09;46.47;;;37.20;;
57217;SDS011;43078;52.972;6.482;2023-04-08T17:49:44;48.17;;;37.60;;
57217;SDS011;43078;52.972;6.482;2023-04-08T17:52:10;48.50;;;39.28;;
57217;SDS011;43078;52.972;6.482;2023-04-08T17:54:36;49.30;;;40.30;;
57217;SDS011;43078;52.972;6.482;2023-04-08T17:57:01;50.22;;;41.10;;
57217;SDS011;43078;52.972;6.482;2023-04-08T17:59:27;50.17;;;41.05;;
57217;SDS011;43078;52.972;6.482;2023-04-08T18:04:57;52.88;;;40.92;;
57217;SDS011;43078;52.972;6.482;2023-04-08T18:07:24;52.67;;;42.92;;
57217;SDS011;43078;52.972;6.482;2023-04-08T18:09:50;52.75;;;42.33;;
57217;SDS011;43078;52.972;6.482;2023-04-08T18:12:16;52.90;;;43.65;;
57217;SDS011;43078;52.972;6.482;2023-04-08T18:14:45;53.35;;;44.67;;
57217;SDS011;43078;52.972;6.482;2023-04-08T18:17:11;53.00;;;43.85;;
57217;SDS011;43078;52.972;6.482;2023-04-08T18:19:39;54.00;;;44.60;;
57217;SDS011;43078;52.972;6.482;2023-04-08T18:22:05;51.38;;;43.85;;
57217;SDS011;43078;52.972;6.482;2023-04-08T18:24:31;53.92;;;45.90;;
57217;SDS011;43078;52.972;6.482;2023-04-08T18:27:06;54.50;;;46.35;;
57217;SDS011;43078;52.972;6.482;2023-04-08T18:29:41;56.50;;;46.90;;
57217;SDS011;43078;52.972;6.482;2023-04-08T18:32:09;56.50;;;46.95;;
57217;SDS011;43078;52.972;6.482;2023-04-08T18:34:35;55.85;;;47.60;;
57217;SDS011;43078;52.972;6.482;2023-04-08T18:37:06;55.25;;;47.90;;
57217;SDS011;43078;52.972;6.482;2023-04-08T18:39:34;58.35;;;47.55;;
57217;SDS011;43078;52.972;6.482;2023-04-08T18:42:04;54.67;;;46.85;;
57217;SDS011;43078;52.972;6.482;2023-04-08T18:44:30;57.88;;;47.00;;
57217;SDS011;43078;52.972;6.482;2023-04-08T18:46:55;60.88;;;47.85;;
57217;SDS011;43078;52.972;6.482;2023-04-08T18:49:24;60.00;;;48.40;;
57217;SDS011;43078;52.972;6.482;2023-04-08T18:51:49;56.88;;;46.42;;
57217;SDS011;43078;52.972;6.482;2023-04-08T18:54:16;60.03;;;49.53;;
57217;SDS011;43078;52.972;6.482;2023-04-08T18:56:42;60.97;;;50.05;;
57217;SDS011;43078;52.972;6.482;2023-04-08T18:59:08;60.65;;;49.20;;
57217;SDS011;43078;52.972;6.482;2023-04-08T19:01:37;58.75;;;49.22;;
57217;SDS011;43078;52.972;6.482;2023-04-08T19:04:03;57.75;;;48.50;;
57217;SDS011;43078;52.972;6.482;2023-04-08T19:06:29;59.40;;;48.97;;
57217;SDS011;43078;52.972;6.482;2023-04-08T19:09:00;60.70;;;49.92;;
57217;SDS011;43078;52.972;6.482;2023-04-08T19:11:25;62.53;;;52.17;;
57217;SDS011;43078;52.972;6.482;2023-04-08T19:13:53;54.88;;;47.15;;
57217;SDS011;43078;52.972;6.482;2023-04-08T19:16:20;60.30;;;50.50;;
57217;SDS011;43078;52.972;6.482;2023-04-08T19:18:45;58.28;;;47.90;;
57217;SDS011;43078;52.972;6.482;2023-04-08T19:21:11;62.20;;;50.63;;
57217;SDS011;43078;52.972;6.482;2023-04-08T19:23:37;56.40;;;48.35;;
57217;SDS011;43078;52.972;6.482;2023-04-08T19:26:03;62.20;;;49.50;;
57217;SDS011;43078;52.972;6.482;2023-04-08T19:28:30;59.03;;;48.80;;
57217;SDS011;43078;52.972;6.482;2023-04-08T19:30:57;55.30;;;47.60;;
57217;SDS011;43078;52.972;6.482;2023-04-08T19:33:24;59.67;;;49.10;;
57217;SDS011;43078;52.972;6.482;2023-04-08T19:35:52;55.05;;;46.58;;
57217;SDS011;43078;52.972;6.482;2023-04-08T19:38:18;59.33;;;48.15;;
57217;SDS011;43078;52.972;6.482;2023-04-08T19:40:44;59.60;;;48.20;;
57217;SDS011;43078;52.972;6.482;2023-04-08T19:46:06;58.40;;;48.00;;
57217;SDS011;43078;52.972;6.482;2023-04-08T19:48:32;57.03;;;47.17;;
57217;SDS011;43078;52.972;6.482;2023-04-08T19:51:01;55.30;;;47.40;;
57217;SDS011;43078;52.972;6.482;2023-04-08T19:53:46;57.42;;;48.22;;
57217;SDS011;43078;52.972;6.482;2023-04-08T19:56:13;54.53;;;45.45;;
57217;SDS011;43078;52.972;6.482;2023-04-08T19:58:40;53.85;;;46.25;;
57217;SDS011;43078;52.972;6.482;2023-04-08T20:01:06;56.35;;;46.80;;
57217;SDS011;43078;52.972;6.482;2023-04-08T20:03:34;58.20;;;48.22;;
57217;SDS011;43078;52.972;6.482;2023-04-08T20:06:00;57.15;;;45.03;;
57217;SDS011;43078;52.972;6.482;2023-04-08T20:08:44;50.78;;;42.95;;
57217;SDS011;43078;52.972;6.482;2023-04-08T20:11:10;55.88;;;43.38;;
57217;SDS011;43078;52.972;6.482;2023-04-08T20:13:36;54.92;;;44.33;;
57217;SDS011;43078;52.972;6.482;2023-04-08T20:16:04;54.85;;;44.42;;
57217;SDS011;43078;52.972;6.482;2023-04-08T20:18:31;50.70;;;41.95;;
57217;SDS011;43078;52.972;6.482;2023-04-08T20:20:57;52.03;;;42.28;;
57217;SDS011;43078;52.972;6.482;2023-04-08T20:23:24;57.08;;;43.75;;
57217;SDS011;43078;52.972;6.482;2023-04-08T20:25:50;52.35;;;42.80;;
57217;SDS011;43078;52.972;6.482;2023-04-08T20:28:16;48.97;;;41.75;;
57217;SDS011;43078;52.972;6.482;2023-04-08T20:30:42;58.08;;;42.65;;
57217;SDS011;43078;52.972;6.482;2023-04-08T20:33:08;48.03;;;38.95;;
57217;SDS011;43078;52.972;6.482;2023-04-08T20:35:34;49.28;;;41.53;;
57217;SDS011;43078;52.972;6.482;2023-04-08T20:38:03;46.65;;;39.90;;
57217;SDS011;43078;52.972;6.482;2023-04-08T20:40:29;53.00;;;41.58;;
57217;SDS011;43078;52.972;6.482;2023-04-08T20:42:57;49.95;;;41.45;;
57217;SDS011;43078;52.972;6.482;2023-04-08T20:45:23;48.08;;;40.22;;
57217;SDS011;43078;52.972;6.482;2023-04-08T20:47:49;50.05;;;40.47;;
57217;SDS011;43078;52.972;6.482;2023-04-08T20:50:15;46.08;;;38.33;;
57217;SDS011;43078;52.972;6.482;2023-04-08T20:52:40;51.13;;;41.15;;
57217;SDS011;43078;52.972;6.482;2023-04-08T20:55:06;48.78;;;39.40;;
57217;SDS011;43078;52.972;6.482;2023-04-08T20:57:32;45.85;;;39.85;;
57217;SDS011;43078;52.972;6.482;2023-04-08T20:59:58;50.83;;;40.00;;
57217;SDS011;43078;52.972;6.482;2023-04-08T21:02:24;48.53;;;40.55;;
57217;SDS011;43078;52.972;6.482;2023-04-08T21:04:50;47.60;;;39.50;;
57217;SDS011;43078;52.972;6.482;2023-04-08T21:07:19;46.50;;;39.42;;
57217;SDS011;43078;52.972;6.482;2023-04-08T21:09:50;45.50;;;37.38;;
57217;SDS011;43078;52.972;6.482;2023-04-08T21:12:16;42.03;;;36.35;;
57217;SDS011;43078;52.972;6.482;2023-04-08T21:14:42;44.92;;;37.65;;
57217;SDS011;43078;52.972;6.482;2023-04-08T21:17:10;43.45;;;37.05;;
57217;SDS011;43078;52.972;6.482;2023-04-08T21:19:36;41.78;;;36.72;;
57217;SDS011;43078;52.972;6.482;2023-04-08T21:22:20;46.88;;;36.65;;
57217;SDS011;43078;52.972;6.482;2023-04-08T21:24:46;47.78;;;36.10;;
57217;SDS011;43078;52.972;6.482;2023-04-08T21:27:12;45.90;;;37.38;;
57217;SDS011;43078;52.972;6.482;2023-04-08T21:29:37;44.45;;;36.97;;
57217;SDS011;43078;52.972;6.482;2023-04-08T21:32:03;46.30;;;37.80;;
57217;SDS011;43078;52.972;6.482;2023-04-08T21:34:29;43.88;;;36.00;;
57217;SDS011;43078;52.972;6.482;2023-04-08T21:36:57;44.25;;;37.53;;
57217;SDS011;43078;52.972;6.482;2023-04-08T21:39:26;45.85;;;36.05;;
57217;SDS011;43078;52.972;6.482;2023-04-08T21:41:54;40.70;;;35.20;;
57217;SDS011;43078;52.972;6.482;2023-04-08T21:44:23;43.13;;;36.15;;
57217;SDS011;43078;52.972;6.482;2023-04-08T21:46:49;44.00;;;34.58;;
57217;SDS011;43078;52.972;6.482;2023-04-08T21:49:14;40.65;;;33.42;;
57217;SDS011;43078;52.972;6.482;2023-04-08T21:51:40;46.17;;;35.67;;
57217;SDS011;43078;52.972;6.482;2023-04-08T21:54:06;45.30;;;36.72;;
57217;SDS011;43078;52.972;6.482;2023-04-08T21:56:32;43.28;;;36.17;;
57217;SDS011;43078;52.972;6.482;2023-04-08T21:58:57;44.50;;;35.85;;
57217;SDS011;43078;52.972;6.482;2023-04-08T22:01:23;45.72;;;35.75;;
57217;SDS011;43078;52.972;6.482;2023-04-08T22:03:49;40.50;;;33.22;;